Time;durP1;ratioP1;P1;durP2;ratioP2;P2;SDS_P1;SDS_P2;PMS_P1;PMS_P2;Temp;Humidity;BMP_temperature;BMP_pressure;BME280_temperature;BME280_humidity;BME280_pressure;Samples;Min_cycle;Max_cycle;Signal;HPM_P1;HPM_P2
2023/03/10 00:01:42;;;;;;;0.00;0.00;;;;;;;;;;5031221;28;20438;-73
2023/03/10 00:04:09;;;;;;;0.00;0.00;;;;;;;;;;5029834;28;20466;-73
2023/03/10 00:06:37;;;;;;;0.00;0.00;;;;;;;;;;5031626;28;20482;-73
2023/03/10 00:09:04;;;;;;;0.00;0.00;;;;;;;;;;5029907;28;20459;-73
2023/03/10 00:11:31;;;;;;;0.00;0.00;;;;;;;;;;5013656;28;20469;-73
2023/03/10 00:13:59;;;;;;;0.00;0.00;;;;;;;;;;5011062;28;20447;-73
2023/03/10 00:16:28;;;;;;;0.00;0.00;;;;;;;;;;5030871;28;20468;-73
2023/03/10 00:18:56;;;;;;;0.00;0.00;;;;;;;;;;5031686;28;20477;-73
2023/03/10 00:21:24;;;;;;;0.00;0.00;;;;;;;;;;5031280;28;20441;-73
2023/03/10 00:23:51;;;;;;;0.00;0.00;;;;;;;;;;5029045;28;20947;-73
2023/03/10 00:26:19;;;;;;;0.00;0.00;;;;;;;;;;5031360;28;20569;-73
2023/03/10 00:28:46;;;;;;;0.00;0.00;;;;;;;;;;5025949;28;20832;-72
2023/03/10 00:31:16;;;;;;;0.00;0.00;;;;;;;;;;5010467;28;20659;-72
2023/03/10 00:33:43;;;;;;;0.00;0.00;;;;;;;;;;5012229;28;20518;-73
2023/03/10 00:36:11;;;;;;;0.00;0.00;;;;;;;;;;5014313;28;20486;-73
2023/03/10 00:38:39;;;;;;;0.00;0.00;;;;;;;;;;5015861;28;20447;-72
2023/03/10 00:41:07;;;;;;;0.00;0.00;;;;;;;;;;5015710;28;20446;-73
2023/03/10 00:43:35;;;;;;;0.00;0.00;;;;;;;;;;5031286;28;20855;-73
2023/03/10 00:46:03;;;;;;;0.00;0.00;;;;;;;;;;5035126;28;20551;-73
2023/03/10 00:48:32;;;;;;;0.00;0.00;;;;;;;;;;5033055;28;21294;-73
2023/03/10 00:50:59;;;;;;;44.43;42.50;;;;;;;;;;5035332;28;20448;-73
2023/03/10 00:53:26;;;;;;;12.30;2.97;;;;;;;;;;5034864;28;20446;-73
2023/03/10 00:56:00;;;;;;;15.23;14.13;;;;;;;;;;5034657;28;20465;-73
2023/03/10 00:58:27;;;;;;;18.43;16.47;;;;;;;;;;5023977;28;20465;-73
2023/03/10 01:00:54;;;;;;;0.00;0.00;;;;;;;;;;5015401;28;20817;-73
2023/03/10 01:03:21;;;;;;;0.00;0.00;;;;;;;;;;5013789;28;20520;-73
2023/03/10 01:05:50;;;;;;;4.20;4.10;;;;;;;;;;5015154;28;20466;-72
2023/03/10 01:08:18;;;;;;;0.00;0.00;;;;;;;;;;5014947;28;20454;-72
2023/03/10 01:10:45;;;;;;;0.00;0.00;;;;;;;;;;5014888;28;20443;-72
2023/03/10 01:13:13;;;;;;;0.00;0.00;;;;;;;;;;5013929;28;20447;-72
2023/03/10 01:15:40;;;;;;;30.33;27.30;;;;;;;;;;5032956;28;20465;-72
2023/03/10 01:18:08;;;;;;;0.40;0.40;;;;;;;;;;5034921;28;20442;-72
2023/03/10 01:20:36;;;;;;;0.00;0.00;;;;;;;;;;5023097;28;20465;-72
2023/03/10 01:23:04;;;;;;;0.00;0.00;;;;;;;;;;5014281;28;20446;-72
2023/03/10 01:25:31;;;;;;;0.00;0.00;;;;;;;;;;5024270;28;20462;-72
2023/03/10 01:27:58;;;;;;;0.00;0.00;;;;;;;;;;5034129;28;20488;-73
2023/03/10 01:30:25;;;;;;;0.00;0.00;;;;;;;;;;5017953;28;20459;-72
2023/03/10 01:32:52;;;;;;;0.00;0.00;;;;;;;;;;5013445;28;20959;-72
2023/03/10 01:35:20;;;;;;;0.00;0.00;;;;;;;;;;5014890;28;20806;-72
2023/03/10 01:37:47;;;;;;;0.00;0.00;;;;;;;;;;5018498;28;20454;-73
2023/03/10 01:40:17;;;;;;;0.00;0.00;;;;;;;;;;5023972;28;20458;-73
2023/03/10 01:42:44;;;;;;;0.00;0.00;;;;;;;;;;5017817;28;20984;-73
2023/03/10 01:45:31;;;;;;;0.00;0.00;;;;;;;;;;5014211;28;20447;-73
2023/03/10 01:47:58;;;;;;;0.00;0.00;;;;;;;;;;5014085;28;20840;-72
2023/03/10 01:50:26;;;;;;;0.00;0.00;;;;;;;;;;5014039;28;20461;-73
2023/03/10 01:52:57;;;;;;;0.00;0.00;;;;;;;;;;5012838;28;20467;-72
2023/03/10 01:55:27;;;;;;;0.00;0.00;;;;;;;;;;5013956;28;20959;-72
2023/03/10 01:57:55;;;;;;;0.00;0.00;;;;;;;;;;5014225;28;20805;-72
2023/03/10 02:00:23;;;;;;;0.00;0.00;;;;;;;;;;5013743;28;20545;-73
2023/03/10 02:02:53;;;;;;;0.00;0.00;;;;;;;;;;5013631;28;20458;-73
2023/03/10 02:05:21;;;;;;;0.00;0.00;;;;;;;;;;5013109;28;20467;-73
2023/03/10 02:07:48;;;;;;;0.00;0.00;;;;;;;;;;5014233;28;20817;-73
2023/03/10 02:10:16;;;;;;;0.00;0.00;;;;;;;;;;5013969;28;20446;-73
2023/03/10 02:12:44;;;;;;;7.17;6.97;;;;;;;;;;5013492;28;20438;-73
2023/03/10 02:15:12;;;;;;;2.93;2.80;;;;;;;;;;5013951;28;20947;-73
2023/03/10 02:17:39;;;;;;;0.20;0.20;;;;;;;;;;5015376;28;20972;-73
2023/03/10 02:20:19;;;;;;;2.23;2.13;;;;;;;;;;5033715;28;20449;-73
2023/03/10 02:22:47;;;;;;;1.17;1.17;;;;;;;;;;5031744;28;20458;-73
2023/03/10 02:25:22;;;;;;;2.03;1.97;;;;;;;;;;5013118;28;20466;-74
2023/03/10 02:27:50;;;;;;;21.73;20.33;;;;;;;;;;5013153;28;20478;-72
2023/03/10 02:30:21;;;;;;;0.60;0.60;;;;;;;;;;5023801;28;20746;-73
2023/03/10 02:32:49;;;;;;;0.17;0.17;;;;;;;;;;5015241;28;20490;-73
2023/03/10 02:35:16;;;;;;;5.20;5.00;;;;;;;;;;5028423;28;20466;-73
2023/03/10 02:37:44;;;;;;;6.07;4.20;;;;;;;;;;5019820;28;20469;-73
2023/03/10 02:40:32;;;;;;;1.17;1.17;;;;;;;;;;5013512;28;20516;-73
2023/03/10 02:43:01;;;;;;;2.13;2.13;;;;;;;;;;5024720;28;20458;-72
2023/03/10 02:45:29;;;;;;;4.33;4.23;;;;;;;;;;5027925;28;20966;-73
2023/03/10 02:47:56;;;;;;;10.93;10.13;;;;;;;;;;5016783;28;20486;-72
2023/03/10 02:50:25;;;;;;;0.00;0.00;;;;;;;;;;5028645;28;20462;-72
2023/03/10 02:52:56;;;;;;;0.00;0.00;;;;;;;;;;5030732;28;20465;-72
2023/03/10 02:55:23;;;;;;;0.00;0.00;;;;;;;;;;5032861;28;20446;-73
2023/03/10 02:57:50;;;;;;;0.00;0.00;;;;;;;;;;5031901;28;20441;-72
2023/03/10 03:00:19;;;;;;;0.00;0.00;;;;;;;;;;5031619;28;20788;-72
2023/03/10 03:02:46;;;;;;;0.00;0.00;;;;;;;;;;5032447;28;20446;-72
2023/03/10 03:05:13;;;;;;;0.00;0.00;;;;;;;;;;5030550;28;20462;-73
2023/03/10 03:07:40;;;;;;;0.00;0.00;;;;;;;;;;5032644;28;20823;-72
2023/03/10 03:10:07;;;;;;;0.00;0.00;;;;;;;;;;5031778;28;20453;-72
2023/03/10 03:12:34;;;;;;;0.00;0.00;;;;;;;;;;5030783;28;20539;-73
2023/03/10 03:15:01;;;;;;;0.00;0.00;;;;;;;;;;5032534;28;20471;-72
2023/03/10 03:17:30;;;;;;;0.00;0.00;;;;;;;;;;5032595;28;20936;-72
2023/03/10 03:19:57;;;;;;;0.00;0.00;;;;;;;;;;5032577;28;20528;-72
2023/03/10 03:22:24;;;;;;;0.00;0.00;;;;;;;;;;5029770;28;20964;-72
2023/03/10 03:24:51;;;;;;;0.00;0.00;;;;;;;;;;5032198;28;20442;-72
2023/03/10 03:27:18;;;;;;;0.00;0.00;;;;;;;;;;5029308;28;20478;-72
2023/03/10 03:29:45;;;;;;;0.00;0.00;;;;;;;;;;5030348;28;20477;-72
2023/03/10 03:32:12;;;;;;;0.00;0.00;;;;;;;;;;5032168;28;20442;-72
2023/03/10 03:34:40;;;;;;;0.00;0.00;;;;;;;;;;5032118;28;20454;-72
2023/03/10 03:37:08;;;;;;;0.00;0.00;;;;;;;;;;5029304;28;20474;-72
2023/03/10 03:39:35;;;;;;;0.00;0.00;;;;;;;;;;5029821;28;20617;-72
2023/03/10 03:42:02;;;;;;;0.00;0.00;;;;;;;;;;5031806;28;20442;-72
2023/03/10 03:44:29;;;;;;;0.00;0.00;;;;;;;;;;5017611;28;20955;-71
2023/03/10 03:46:56;;;;;;;0.00;0.00;;;;;;;;;;5011840;28;20893;-73
2023/03/10 03:49:23;;;;;;;0.00;0.00;;;;;;;;;;5017359;28;20505;-73
2023/03/10 03:51:51;;;;;;;0.00;0.00;;;;;;;;;;5011918;28;20447;-72
2023/03/10 03:54:18;;;;;;;0.00;0.00;;;;;;;;;;5011746;28;20443;-72
2023/03/10 03:56:45;;;;;;;0.00;0.00;;;;;;;;;;5010292;28;20479;-72
2023/03/10 03:59:12;;;;;;;0.00;0.00;;;;;;;;;;5012501;28;20451;-72
2023/03/10 04:01:39;;;;;;;0.00;0.00;;;;;;;;;;5014839;28;20465;-72
2023/03/10 04:04:07;;;;;;;0.00;0.00;;;;;;;;;;5031794;28;20453;-72
2023/03/10 04:06:34;;;;;;;0.00;0.00;;;;;;;;;;5029773;28;20465;-73
2023/03/10 04:09:02;;;;;;;0.00;0.00;;;;;;;;;;5032931;28;20492;-72
2023/03/10 04:11:29;;;;;;;0.00;0.00;;;;;;;;;;5016549;28;20465;-73
2023/03/10 04:13:56;;;;;;;0.00;0.00;;;;;;;;;;5016569;28;20453;-73
2023/03/10 04:16:23;;;;;;;0.00;0.00;;;;;;;;;;5014475;28;20462;-73
2023/03/10 04:18:50;;;;;;;0.00;0.00;;;;;;;;;;5015705;28;20431;-73
2023/03/10 04:21:17;;;;;;;0.00;0.00;;;;;;;;;;5015753;28;20442;-72
2023/03/10 04:23:44;;;;;;;0.00;0.00;;;;;;;;;;5016202;28;20450;-72
2023/03/10 04:26:14;;;;;;;0.00;0.00;;;;;;;;;;5030635;28;20995;-72
2023/03/10 04:28:41;;;;;;;0.00;0.00;;;;;;;;;;5035445;28;20577;-73
2023/03/10 04:31:13;;;;;;;0.00;0.00;;;;;;;;;;5035572;28;20446;-72
2023/03/10 04:33:40;;;;;;;0.00;0.00;;;;;;;;;;5034385;28;20445;-73
2023/03/10 04:36:08;;;;;;;0.00;0.00;;;;;;;;;;5035690;28;20531;-73
2023/03/10 04:38:35;;;;;;;0.00;0.00;;;;;;;;;;5035012;28;20434;-73
2023/03/10 04:41:03;;;;;;;0.00;0.00;;;;;;;;;;5035418;28;20446;-73
2023/03/10 04:43:32;;;;;;;0.00;0.00;;;;;;;;;;5032577;28;20465;-73
2023/03/10 04:45:59;;;;;;;0.00;0.00;;;;;;;;;;5051050;22;20480;-71
2023/03/10 04:48:26;;;;;;;0.00;0.00;;;;;;;;;;5052682;28;20476;-70
2023/03/10 04:50:57;;;;;;;0.00;0.00;;;;;;;;;;5055325;28;20448;-71
2023/03/10 04:53:24;;;;;;;0.00;0.00;;;;;;;;;;5051777;28;20461;-70
2023/03/10 04:55:51;;;;;;;0.00;0.00;;;;;;;;;;5054947;28;20996;-71
2023/03/10 04:58:18;;;;;;;0.00;0.00;;;;;;;;;;5045081;28;20458;-70
2023/03/10 05:00:47;;;;;;;0.00;0.00;;;;;;;;;;5034359;28;20464;-71
2023/03/10 05:03:14;;;;;;;0.00;0.00;;;;;;;;;;5034747;28;20453;-70
2023/03/10 05:05:41;;;;;;;0.00;0.00;;;;;;;;;;5033675;28;20449;-71
2023/03/10 05:08:08;;;;;;;0.00;0.00;;;;;;;;;;5053539;28;20473;-71
2023/03/10 05:10:35;;;;;;;0.00;0.00;;;;;;;;;;5054869;28;20445;-71
2023/03/10 05:13:03;;;;;;;0.00;0.00;;;;;;;;;;5054192;28;20445;-71
2023/03/10 05:15:30;;;;;;;0.00;0.00;;;;;;;;;;5053131;28;20461;-71
2023/03/10 05:17:58;;;;;;;0.00;0.00;;;;;;;;;;5054779;28;20461;-71
2023/03/10 05:20:25;;;;;;;0.00;0.00;;;;;;;;;;5053119;28;20452;-70
2023/03/10 05:22:52;;;;;;;0.00;0.00;;;;;;;;;;5053992;28;20437;-70
2023/03/10 05:25:19;;;;;;;0.00;0.00;;;;;;;;;;5054566;28;20456;-71
2023/03/10 05:27:46;;;;;;;0.00;0.00;;;;;;;;;;5054590;28;20844;-71
2023/03/10 05:30:14;;;;;;;0.00;0.00;;;;;;;;;;5039704;28;20828;-71
2023/03/10 05:32:42;;;;;;;0.00;0.00;;;;;;;;;;5034338;28;20450;-71
2023/03/10 05:35:10;;;;;;;0.00;0.00;;;;;;;;;;5033265;28;20981;-71
2023/03/10 05:37:38;;;;;;;0.00;0.00;;;;;;;;;;5034397;28;20465;-70
2023/03/10 05:40:06;;;;;;;0.00;0.00;;;;;;;;;;5036598;28;20460;-71
2023/03/10 05:42:33;;;;;;;0.00;0.00;;;;;;;;;;5036740;28;20967;-71
2023/03/10 05:45:00;;;;;;;0.00;0.00;;;;;;;;;;5034444;28;20450;-70
2023/03/10 05:47:27;;;;;;;0.00;0.00;;;;;;;;;;5052079;28;20477;-70
2023/03/10 05:49:55;;;;;;;0.00;0.00;;;;;;;;;;5054167;28;20441;-71
2023/03/10 05:52:23;;;;;;;0.00;0.00;;;;;;;;;;5051430;28;20457;-71
2023/03/10 05:54:50;;;;;;;0.00;0.00;;;;;;;;;;5053905;28;20449;-71
2023/03/10 05:57:17;;;;;;;0.00;0.00;;;;;;;;;;5048424;28;20477;-71
2023/03/10 05:59:44;;;;;;;0.00;0.00;;;;;;;;;;5033779;28;20457;-71
2023/03/10 06:02:11;;;;;;;0.00;0.00;;;;;;;;;;5040300;28;20464;-71
2023/03/10 06:04:38;;;;;;;0.00;0.00;;;;;;;;;;5053530;28;20451;-71
2023/03/10 06:07:05;;;;;;;0.00;0.00;;;;;;;;;;5053098;28;20564;-71
2023/03/10 06:09:34;;;;;;;0.00;0.00;;;;;;;;;;5051560;28;20488;-71
2023/03/10 06:12:01;;;;;;;0.00;0.00;;;;;;;;;;5043930;28;20462;-71
2023/03/10 06:14:28;;;;;;;0.00;0.00;;;;;;;;;;5033738;28;20453;-71
2023/03/10 06:16:55;;;;;;;0.00;0.00;;;;;;;;;;5046829;28;20492;-71
2023/03/10 06:19:22;;;;;;;0.00;0.00;;;;;;;;;;5053141;28;20938;-71
2023/03/10 06:21:49;;;;;;;0.00;0.00;;;;;;;;;;5045555;28;20465;-71
2023/03/10 06:24:17;;;;;;;0.00;0.00;;;;;;;;;;5051837;28;20996;-71
2023/03/10 06:26:45;;;;;;;0.00;0.00;;;;;;;;;;5052209;28;21002;-71
2023/03/10 06:29:12;;;;;;;0.00;0.00;;;;;;;;;;5051795;28;20481;-71
2023/03/10 06:31:39;;;;;;;0.00;0.00;;;;;;;;;;5052520;28;20445;-71
2023/03/10 06:34:06;;;;;;;0.00;0.00;;;;;;;;;;5050318;28;20457;-71
2023/03/10 06:36:33;;;;;;;0.00;0.00;;;;;;;;;;5047508;28;20481;-71
2023/03/10 06:39:00;;;;;;;0.00;0.00;;;;;;;;;;5032806;28;20460;-71
2023/03/10 06:41:27;;;;;;;0.00;0.00;;;;;;;;;;5032974;28;20445;-71
2023/03/10 06:43:56;;;;;;;0.00;0.00;;;;;;;;;;5033039;28;20457;-71
2023/03/10 06:46:24;;;;;;;0.00;0.00;;;;;;;;;;5032993;28;20466;-71
2023/03/10 06:48:51;;;;;;;0.00;0.00;;;;;;;;;;5047248;28;20531;-71
2023/03/10 06:51:20;;;;;;;0.00;0.00;;;;;;;;;;5035764;28;20466;-73
2023/03/10 06:53:48;;;;;;;0.00;0.00;;;;;;;;;;5033043;28;20442;-72
2023/03/10 06:56:15;;;;;;;0.00;0.00;;;;;;;;;;5039600;28;20532;-74
2023/03/10 06:58:42;;;;;;;0.00;0.00;;;;;;;;;;5052179;28;20444;-72
2023/03/10 07:01:20;;;;;;;0.00;0.00;;;;;;;;;;5052445;28;20449;-72
2023/03/10 07:03:47;;;;;;;0.00;0.00;;;;;;;;;;5052378;28;20441;-72
2023/03/10 07:06:14;;;;;;;0.00;0.00;;;;;;;;;;5050001;28;20488;-72
2023/03/10 07:08:41;;;;;;;0.00;0.00;;;;;;;;;;5052527;28;20488;-72
2023/03/10 07:11:08;;;;;;;0.00;0.00;;;;;;;;;;5052399;28;20853;-72
2023/03/10 07:13:35;;;;;;;0.00;0.00;;;;;;;;;;5052513;28;20919;-71
2023/03/10 07:16:02;;;;;;;0.00;0.00;;;;;;;;;;5052377;28;20476;-74
2023/03/10 07:18:31;;;;;;;0.00;0.00;;;;;;;;;;5052536;28;20438;-71
2023/03/10 07:20:59;;;;;;;0.00;0.00;;;;;;;;;;5041096;28;20947;-72
2023/03/10 07:23:26;;;;;;;0.00;0.00;;;;;;;;;;5034536;28;20992;-72
2023/03/10 07:25:54;;;;;;;0.00;0.00;;;;;;;;;;5043343;28;20460;-72
2023/03/10 07:28:21;;;;;;;0.00;0.00;;;;;;;;;;5044172;28;20564;-72
2023/03/10 07:30:49;;;;;;;0.00;0.00;;;;;;;;;;5046428;28;20484;-72
2023/03/10 07:33:16;;;;;;;0.00;0.00;;;;;;;;;;5052312;28;20483;-73
2023/03/10 07:35:44;;;;;;;0.00;0.00;;;;;;;;;;5056111;28;20448;-71
2023/03/10 07:38:12;;;;;;;0.00;0.00;;;;;;;;;;5042137;28;20456;-71
2023/03/10 07:40:40;;;;;;;0.00;0.00;;;;;;;;;;5047845;28;20445;-70
2023/03/10 07:43:07;;;;;;;0.00;0.00;;;;;;;;;;5051189;28;20438;-71
2023/03/10 07:45:34;;;;;;;0.00;0.00;;;;;;;;;;5047360;28;20472;-71
2023/03/10 07:48:01;;;;;;;0.00;0.00;;;;;;;;;;5051070;28;20999;-71
2023/03/10 07:50:28;;;;;;;0.00;0.00;;;;;;;;;;5050899;28;20453;-70
2023/03/10 07:52:57;;;;;;;0.00;0.00;;;;;;;;;;5051397;28;20847;-71
2023/03/10 07:55:24;;;;;;;0.00;0.00;;;;;;;;;;5047911;28;20903;-71
2023/03/10 07:57:51;;;;;;;0.00;0.00;;;;;;;;;;5048423;28;20466;-73
2023/03/10 08:00:18;;;;;;;0.00;0.00;;;;;;;;;;5052121;28;20190;-74
2023/03/10 08:02:45;;;;;;;0.00;0.00;;;;;;;;;;5049111;28;20453;-73
2023/03/10 08:05:13;;;;;;;0.00;0.00;;;;;;;;;;5051041;28;20445;-74
2023/03/10 08:07:40;;;;;;;0.00;0.00;;;;;;;;;;5048499;28;20808;-74
2023/03/10 08:10:09;;;;;;;0.00;0.00;;;;;;;;;;5046300;28;20518;-73
2023/03/10 08:12:36;;;;;;;0.00;0.00;;;;;;;;;;5032107;28;20474;-71
2023/03/10 08:15:04;;;;;;;0.00;0.00;;;;;;;;;;5032803;28;20810;-71
2023/03/10 08:17:32;;;;;;;0.00;0.00;;;;;;;;;;5030145;28;20539;-73
2023/03/10 08:19:59;;;;;;;0.00;0.00;;;;;;;;;;5041008;28;20861;-76
2023/03/10 08:22:27;;;;;;;0.00;0.00;;;;;;;;;;5050752;28;20499;-77
2023/03/10 08:24:54;;;;;;;0.00;0.00;;;;;;;;;;5046378;28;20457;-76
2023/03/10 08:27:23;;;;;;;0.00;0.00;;;;;;;;;;5046891;28;20481;-74
2023/03/10 08:29:50;;;;;;;0.00;0.00;;;;;;;;;;5051262;28;20477;-74
2023/03/10 08:32:18;;;;;;;0.00;0.00;;;;;;;;;;5050771;28;20433;-74
2023/03/10 08:34:46;;;;;;;0.00;0.00;;;;;;;;;;5047195;28;20826;-74
2023/03/10 08:37:13;;;;;;;0.00;0.00;;;;;;;;;;5050074;28;20477;-75
2023/03/10 08:39:40;;;;;;;0.00;0.00;;;;;;;;;;5051145;28;20440;-73
2023/03/10 08:42:07;;;;;;;0.00;0.00;;;;;;;;;;5048655;28;20457;-77
2023/03/10 08:44:35;;;;;;;0.00;0.00;;;;;;;;;;5050535;28;20819;-79
2023/03/10 08:47:02;;;;;;;0.00;0.00;;;;;;;;;;5045097;28;20488;-79
2023/03/10 08:49:30;;;;;;;0.00;0.00;;;;;;;;;;5041988;28;20487;-76
2023/03/10 08:51:58;;;;;;;0.00;0.00;;;;;;;;;;5049141;28;20878;-75
2023/03/10 08:54:25;;;;;;;0.00;0.00;;;;;;;;;;5048795;28;20976;-76
2023/03/10 08:56:52;;;;;;;0.00;0.00;;;;;;;;;;5053385;28;20468;-73
2023/03/10 08:59:19;;;;;;;0.00;0.00;;;;;;;;;;5051371;28;20467;-76
2023/03/10 09:01:47;;;;;;;0.00;0.00;;;;;;;;;;5054710;28;20440;-78
2023/03/10 09:04:14;;;;;;;0.00;0.00;;;;;;;;;;5053244;28;20473;-79
2023/03/10 09:06:41;;;;;;;0.00;0.00;;;;;;;;;;5049006;28;20506;-78
2023/03/10 09:09:09;;;;;;;0.00;0.00;;;;;;;;;;5050852;28;20477;-77
2023/03/10 09:11:37;;;;;;;0.00;0.00;;;;;;;;;;5053526;28;20805;-74
2023/03/10 09:14:05;;;;;;;0.00;0.00;;;;;;;;;;5052464;28;20796;-75
2023/03/10 09:16:32;;;;;;;0.00;0.00;;;;;;;;;;5054096;28;20460;-75
2023/03/10 09:19:01;;;;;;;0.00;0.00;;;;;;;;;;5054281;28;20436;-77
2023/03/10 09:21:29;;;;;;;0.00;0.00;;;;;;;;;;5054441;28;20441;-74
2023/03/10 09:23:56;;;;;;;0.00;0.00;;;;;;;;;;5054744;28;20444;-77
2023/03/10 09:26:23;;;;;;;0.00;0.00;;;;;;;;;;5054549;28;20558;-76
2023/03/10 09:28:51;;;;;;;0.00;0.00;;;;;;;;;;5052364;28;20488;-79
2023/03/10 09:31:19;;;;;;;0.00;0.00;;;;;;;;;;5035677;28;20457;-77
2023/03/10 09:33:46;;;;;;;0.00;0.00;;;;;;;;;;5036905;28;20465;-74
2023/03/10 09:36:15;;;;;;;0.00;0.00;;;;;;;;;;5036424;28;20484;-74
2023/03/10 09:38:42;;;;;;;0.00;0.00;;;;;;;;;;5033199;28;20458;-75
2023/03/10 09:41:22;;;;;;;0.00;0.00;;;;;;;;;;5033069;28;20951;-75
2023/03/10 09:43:53;;;;;;;0.00;0.00;;;;;;;;;;5033143;28;20495;-76
2023/03/10 09:46:23;;;;;;;0.00;0.00;;;;;;;;;;5033551;28;20994;-76
2023/03/10 09:48:53;;;;;;;0.00;0.00;;;;;;;;;;5033192;28;20485;-78
2023/03/10 09:51:23;;;;;;;0.00;0.00;;;;;;;;;;5033958;28;20442;-75
2023/03/10 09:53:56;;;;;;;0.00;0.00;;;;;;;;;;5049069;28;20464;-76
2023/03/10 09:56:26;;;;;;;0.00;0.00;;;;;;;;;;5051495;28;20469;-77
2023/03/10 09:58:54;;;;;;;0.00;0.00;;;;;;;;;;5036103;28;20449;-75
2023/03/10 10:01:22;;;;;;;0.00;0.00;;;;;;;;;;5051227;28;20849;-76
2023/03/10 10:03:52;;;;;;;0.00;0.00;;;;;;;;;;5053622;28;20448;-74
2023/03/10 10:06:22;;;;;;;0.00;0.00;;;;;;;;;;5052606;28;21001;-74
2023/03/10 10:08:52;;;;;;;0.00;0.00;;;;;;;;;;5047783;28;20457;-76
2023/03/10 10:11:20;;;;;;;0.00;0.00;;;;;;;;;;5049145;28;20441;-76
2023/03/10 10:13:47;;;;;;;0.00;0.00;;;;;;;;;;5053419;28;20449;-75
2023/03/10 10:16:21;;;;;;;0.00;0.00;;;;;;;;;;5053124;28;20469;-76
2023/03/10 10:18:51;;;;;;;0.00;0.00;;;;;;;;;;5038923;28;20461;-77
2023/03/10 10:21:22;;;;;;;0.00;0.00;;;;;;;;;;5033301;28;20815;-74
2023/03/10 10:23:51;;;;;;;0.00;0.00;;;;;;;;;;5033387;28;20446;-76
2023/03/10 10:26:20;;;;;;;0.00;0.00;;;;;;;;;;5033002;28;20469;-73
2023/03/10 10:28:49;;;;;;;0.00;0.00;;;;;;;;;;5033338;28;20446;-73
2023/03/10 10:31:18;;;;;;;0.00;0.00;;;;;;;;;;5033239;28;20823;-73
2023/03/10 10:33:56;;;;;;;0.00;0.00;;;;;;;;;;5036047;28;20467;-82
2023/03/10 10:36:24;;;;;;;0.00;0.00;;;;;;;;;;5048561;28;20487;-83
2023/03/10 10:38:54;;;;;;;0.00;0.00;;;;;;;;;;5048507;28;20457;-84
2023/03/10 10:41:22;;;;;;;0.00;0.00;;;;;;;;;;5044753;28;20457;-87
2023/03/10 10:43:49;;;;;;;0.00;0.00;;;;;;;;;;5050550;28;20445;-75
2023/03/10 10:46:24;;;;;;;0.00;0.00;;;;;;;;;;5067727;22;20550;-74
2023/03/10 10:49:00;;;;;;;0.00;0.00;;;;;;;;;;5031127;28;20560;-77
2023/03/10 10:51:28;;;;;;;0.00;0.00;;;;;;;;;;5023221;28;20458;-76
2023/03/10 10:53:57;;;;;;;0.00;0.00;;;;;;;;;;5027802;28;20469;-76
2023/03/10 10:56:24;;;;;;;0.00;0.00;;;;;;;;;;5032280;28;20469;-74
2023/03/10 10:59:02;;;;;;;0.00;0.00;;;;;;;;;;5010012;28;20961;-74
2023/03/10 11:01:46;;;;;;;0.00;0.00;;;;;;;;;;5011723;28;20447;-74
2023/03/10 11:04:13;;;;;;;0.00;0.00;;;;;;;;;;4993120;28;20799;-74
2023/03/10 11:06:40;;;;;;;0.00;0.00;;;;;;;;;;4993556;28;20482;-75
2023/03/10 11:09:12;;;;;;;0.00;0.00;;;;;;;;;;4993920;28;20893;-75
2023/03/10 11:11:42;;;;;;;0.00;0.00;;;;;;;;;;4999504;28;20463;-74
2023/03/10 11:14:25;;;;;;;0.00;0.00;;;;;;;;;;5009149;28;20469;-74
2023/03/10 11:16:55;;;;;;;0.00;0.00;;;;;;;;;;5005142;28;20481;-75
2023/03/10 11:19:25;;;;;;;0.00;0.00;;;;;;;;;;5005143;28;20832;-75
2023/03/10 11:21:55;;;;;;;0.00;0.00;;;;;;;;;;5008083;28;20486;-75
2023/03/10 11:24:26;;;;;;;0.00;0.00;;;;;;;;;;5004682;28;20462;-76
2023/03/10 11:26:58;;;;;;;0.00;0.00;;;;;;;;;;5006498;28;20478;-74
2023/03/10 11:29:32;;;;;;;0.00;0.00;;;;;;;;;;5002708;28;21086;-75
2023/03/10 11:32:02;;;;;;;0.00;0.00;;;;;;;;;;5010293;28;20811;-75
2023/03/10 11:34:30;;;;;;;0.00;0.00;;;;;;;;;;5008440;28;20459;-74
2023/03/10 11:37:01;;;;;;;0.00;0.00;;;;;;;;;;5005342;28;20480;-76
2023/03/10 11:39:36;;;;;;;0.00;0.00;;;;;;;;;;5009615;28;20815;-75
2023/03/10 11:42:06;;;;;;;0.00;0.00;;;;;;;;;;5007970;28;21070;-76
2023/03/10 11:44:38;;;;;;;0.00;0.00;;;;;;;;;;5011710;28;20443;-75
2023/03/10 11:47:06;;;;;;;0.00;0.00;;;;;;;;;;5007848;28;20864;-75
2023/03/10 11:49:36;;;;;;;0.00;0.00;;;;;;;;;;5010365;28;20489;-75
2023/03/10 11:52:09;;;;;;;0.00;0.00;;;;;;;;;;5008961;28;20854;-75
2023/03/10 11:54:39;;;;;;;0.00;0.00;;;;;;;;;;5011057;28;20462;-76
2023/03/10 11:57:13;;;;;;;0.00;0.00;;;;;;;;;;5010621;28;20491;-75
2023/03/10 11:59:45;;;;;;;0.00;0.00;;;;;;;;;;4998924;28;20459;-75
2023/03/10 12:02:18;;;;;;;0.00;0.00;;;;;;;;;;5009247;28;20458;-76
2023/03/10 12:04:47;;;;;;;0.00;0.00;;;;;;;;;;5006331;28;20439;-74
2023/03/10 12:07:16;;;;;;;0.00;0.00;;;;;;;;;;5007106;28;20571;-75
2023/03/10 12:09:46;;;;;;;0.00;0.00;;;;;;;;;;5005102;28;20482;-76
2023/03/10 12:12:15;;;;;;;0.00;0.00;;;;;;;;;;5007364;28;20976;-76
2023/03/10 12:14:43;;;;;;;0.00;0.00;;;;;;;;;;5005952;28;20458;-75
2023/03/10 12:17:12;;;;;;;0.00;0.00;;;;;;;;;;5010184;28;20475;-76
2023/03/10 12:19:54;;;;;;;0.00;0.00;;;;;;;;;;5008389;28;20455;-75
2023/03/10 12:22:24;;;;;;;0.00;0.00;;;;;;;;;;5003116;28;20806;-76
2023/03/10 12:24:53;;;;;;;0.00;0.00;;;;;;;;;;5006738;28;20463;-75
2023/03/10 12:27:20;;;;;;;0.00;0.00;;;;;;;;;;5005352;28;20987;-75
2023/03/10 12:29:47;;;;;;;0.00;0.00;;;;;;;;;;5007522;28;20933;-77
2023/03/10 12:32:33;;;;;;;0.00;0.00;;;;;;;;;;5009202;28;20967;-75
2023/03/10 12:35:19;;;;;;;0.00;0.00;;;;;;;;;;5010450;28;21228;-76
2023/03/10 12:37:46;;;;;;;0.00;0.00;;;;;;;;;;5007740;28;20855;-77
2023/03/10 12:40:28;;;;;;;0.00;0.00;;;;;;;;;;5008709;28;20455;-76
2023/03/10 12:42:56;;;;;;;0.00;0.00;;;;;;;;;;5003637;28;20455;-77
2023/03/10 12:45:27;;;;;;;0.00;0.00;;;;;;;;;;5007465;28;20881;-78
2023/03/10 12:47:56;;;;;;;0.00;0.00;;;;;;;;;;5009049;28;21026;-75
2023/03/10 12:50:30;;;;;;;0.00;0.00;;;;;;;;;;5005559;28;20815;-76
2023/03/10 12:53:01;;;;;;;0.00;0.00;;;;;;;;;;5010715;28;20459;-75
2023/03/10 12:55:28;;;;;;;0.00;0.00;;;;;;;;;;5015009;28;20452;-77
2023/03/10 12:58:00;;;;;;;0.00;0.00;;;;;;;;;;5006945;28;20472;-76
2023/03/10 13:00:33;;;;;;;0.00;0.00;;;;;;;;;;5009721;28;20868;-76
2023/03/10 13:03:02;;;;;;;0.00;0.00;;;;;;;;;;5013159;28;20459;-76
2023/03/10 13:05:31;;;;;;;0.00;0.00;;;;;;;;;;5008092;28;20574;-76
2023/03/10 13:08:01;;;;;;;0.00;0.00;;;;;;;;;;5013087;28;20489;-74
2023/03/10 13:10:30;;;;;;;0.00;0.00;;;;;;;;;;5014871;28;21004;-74
2023/03/10 13:13:01;;;;;;;0.00;0.00;;;;;;;;;;5010720;28;20462;-76
2023/03/10 13:15:29;;;;;;;0.00;0.00;;;;;;;;;;5004571;28;20465;-75
2023/03/10 13:18:09;;;;;;;0.00;0.00;;;;;;;;;;5011650;28;21006;-74
2023/03/10 13:20:37;;;;;;;1999.90;999.90;;;;;;;;;;5009818;28;20458;-75
2023/03/10 13:23:04;;;;;;;1999.90;999.90;;;;;;;;;;5011856;28;20486;-75
2023/03/10 13:25:35;;;;;;;1999.90;999.90;;;;;;;;;;5008300;28;20459;-73
2023/03/10 13:28:10;;;;;;;1899.70;999.90;;;;;;;;;;5009553;28;20562;-76
2023/03/10 13:30:38;;;;;;;1599.47;999.90;;;;;;;;;;5004882;28;20533;-76
2023/03/10 13:33:05;;;;;;;528.43;515.50;;;;;;;;;;5011696;28;20465;-74
2023/03/10 13:35:34;;;;;;;0.00;0.00;;;;;;;;;;5005756;28;20530;-74
2023/03/10 13:38:10;;;;;;;0.00;0.00;;;;;;;;;;5009786;28;20485;-73
2023/03/10 13:40:38;;;;;;;1999.90;999.90;;;;;;;;;;5003725;28;20458;-75
2023/03/10 13:43:05;;;;;;;;;;;;;;;;;;5011360;28;20526;-73
2023/03/10 13:45:33;;;;;;;;;;;;;;;;;;5002200;28;20396;-74
2023/03/10 13:48:00;;;;;;;;;;;;;;;;;;5008167;28;20470;-71
2023/03/10 13:50:27;;;;;;;;;;;;;;;;;;5013359;28;20407;-68
2023/03/10 13:52:56;;;;;;;;;;;;;;;;;;5011292;28;20780;-67
2023/03/10 13:55:22;;;;;;;;;;;;;;;;;;5012330;28;25117;-67
2023/03/10 13:57:49;;;;;;;;;;;;;;;;;;5011370;28;19953;-69
2023/03/10 14:00:16;;;;;;;;;;;;;;;;;;5010057;28;19930;-69
2023/03/10 14:02:43;;;;;;;;;;;;;;;;;;5010474;28;19929;-68
2023/03/10 14:05:25;;;;;;;0.00;0.00;;;;;;;;;;5006356;28;20056;-70
2023/03/10 14:08:00;;;;;;;0.00;0.00;;;;;;;;;;5012524;28;20482;-69
2023/03/10 14:10:27;;;;;;;0.00;0.00;;;;;;;;;;5004900;28;20497;-69
2023/03/10 14:12:54;;;;;;;0.00;0.00;;;;;;;;;;5010151;28;20458;-63
2023/03/10 14:15:23;;;;;;;0.00;0.00;;;;;;;;;;5009754;28;20555;-65
2023/03/10 14:17:52;;;;;;;0.00;0.00;;;;;;;;;;5008636;28;20841;-64
2023/03/10 14:20:19;;;;;;;;;;;;;;;;;;5007959;28;20515;-66
2023/03/10 14:22:46;;;;;;;;;;;;;;;;;;5013205;28;20390;-65
2023/03/10 14:25:16;;;;;;;0.00;0.00;;;;;;;;;;5010433;28;20478;-65
2023/03/10 14:27:44;;;;;;;0.00;0.00;;;;;;;;;;5009047;28;20228;-65
2023/03/10 14:30:22;;;;;;;0.00;0.00;;;;;;;;;;5005355;28;20465;-63
2023/03/10 14:32:49;;;;;;;0.00;0.00;;;;;;;;;;5007387;28;20454;-68
2023/03/10 14:35:19;;;;;;;0.00;0.00;;;;;;;;;;5006558;28;20816;-68
2023/03/10 14:37:45;;;;;;;;;;;;;;;;;;5012472;28;21152;-69
2023/03/10 14:40:12;;;;;;;;;;;;;;;;;;5009097;28;20469;-69
2023/03/10 14:42:40;;;;;;;;;;;;;;;;;;5009148;28;20394;-62
2023/03/10 14:45:07;;;;;;;;;;;;;;;;;;5006588;28;20401;-62
2023/03/10 14:47:35;;;;;;;311.53;303.63;;;;;;;;;;5005424;28;20363;-62
2023/03/10 14:50:02;;;;;;;;;;;;;;;;;;4996511;28;21016;-62
2023/03/10 14:52:29;;;;;;;;;;;;;;;;;;5008849;28;20390;-66
2023/03/10 14:54:56;;;;;;;;;;;;;;;;;;5010405;28;20394;-67